Map

Track Data

SID SEASON NUMBER BASIN SUBBASIN NAME ISO_TIME NATURE LAT LON WMO_WIND WMO_PRES WMO_AGENCY TRACK_TYPE DIST2LAND LANDFALL IFLAG USA_AGENCY USA_ATCF_ID USA_LAT USA_LON USA_RECORD USA_STATUS USA_WIND USA_PRES USA_SSHS USA_R34_NE USA_R34_SE USA_R34_SW USA_R34_NW USA_R50_NE USA_R50_SE USA_R50_SW USA_R50_NW USA_R64_NE USA_R64_SE USA_R64_SW USA_R64_NW USA_POCI USA_ROCI USA_RMW USA_EYE TOKYO_LAT TOKYO_LON TOKYO_GRADE TOKYO_WIND TOKYO_PRES TOKYO_R50_DIR TOKYO_R50_LONG TOKYO_R50_SHORT TOKYO_R30_DIR TOKYO_R30_LONG TOKYO_R30_SHORT TOKYO_LAND CMA_LAT CMA_LON CMA_CAT CMA_WIND CMA_PRES HKO_LAT HKO_LON HKO_CAT HKO_WIND HKO_PRES NEWDELHI_LAT NEWDELHI_LON NEWDELHI_GRADE NEWDELHI_WIND NEWDELHI_PRES NEWDELHI_CI NEWDELHI_DP NEWDELHI_POCI REUNION_LAT REUNION_LON REUNION_TYPE REUNION_WIND REUNION_PRES REUNION_TNUM REUNION_CI REUNION_RMW REUNION_R34_NE REUNION_R34_SE REUNION_R34_SW REUNION_R34_NW REUNION_R50_NE REUNION_R50_SE REUNION_R50_SW REUNION_R50_NW REUNION_R64_NE REUNION_R64_SE REUNION_R64_SW REUNION_R64_NW BOM_LAT BOM_LON BOM_TYPE BOM_WIND BOM_PRES BOM_TNUM BOM_CI BOM_RMW BOM_R34_NE BOM_R34_SE BOM_R34_SW BOM_R34_NW BOM_R50_NE BOM_R50_SE BOM_R50_SW BOM_R50_NW BOM_R64_NE BOM_R64_SE BOM_R64_SW BOM_R64_NW BOM_ROCI BOM_POCI BOM_EYE BOM_POS_METHOD BOM_PRES_METHOD NADI_LAT NADI_LON NADI_CAT NADI_WIND NADI_PRES WELLINGTON_LAT WELLINGTON_LON WELLINGTON_WIND WELLINGTON_PRES DS824_LAT DS824_LON DS824_STAGE DS824_WIND DS824_PRES TD9636_LAT TD9636_LON TD9636_STAGE TD9636_WIND TD9636_PRES TD9635_LAT TD9635_LON TD9635_WIND TD9635_PRES TD9635_ROCI NEUMANN_LAT NEUMANN_LON NEUMANN_CLASS NEUMANN_WIND NEUMANN_PRES MLC_LAT MLC_LON MLC_CLASS MLC_WIND MLC_PRES USA_GUST BOM_GUST BOM_GUST_PER REUNION_GUST REUNION_GUST_PER USA_SEAHGT USA_SEARAD_NE USA_SEARAD_SE USA_SEARAD_SW USA_SEARAD_NW STORM_SPEED STORM_DIR
1912255N14138 1912 45 WP MM NOT_NAMED 1912-09-10 16:00:00 NR 13.7000 138.400 main 1402 1381 __________O___ -1 13.7000 138.400 7 7 284
1912255N14138 1912 45 WP MM NOT_NAMED 1912-09-10 18:00:00 NR 13.7524 138.179 main 1383 1340 __________P___ -1 13.7524 138.179 7 7 283
1912255N14138 1912 45 WP MM NOT_NAMED 1912-09-10 21:00:00 NR 13.8299 137.842 main 1340 1311 __________P___ -1 13.8299 137.842 7 7 283
1912255N14138 1912 45 WP MM NOT_NAMED 1912-09-11 00:00:00 NR 13.9051 137.494 main 1311 1272 __________P___ -1 13.9051 137.494 7 7 282
1912255N14138 1912 45 WP MM NOT_NAMED 1912-09-11 03:00:00 NR 13.9770 137.127 main 1272 1261 __________P___ -1 13.9770 137.127 7 7 281
1912255N14138 1912 45 WP MM NOT_NAMED 1912-09-11 04:00:00 NR 14.0000 137.000 main 1261 1230 __________O___ -1 14.0000 137.000 7 8 280
1912255N14138 1912 45 WP MM NOT_NAMED 1912-09-11 06:00:00 NR 14.0447 136.736 main 1230 1189 __________P___ -1 14.0447 136.736 7 8 280
1912255N14138 1912 45 WP MM NOT_NAMED 1912-09-11 09:00:00 NR 14.1116 136.322 main 1189 1148 __________P___ -1 14.1116 136.322 7 8 280
1912255N14138 1912 45 WP MM NOT_NAMED 1912-09-11 12:00:00 NR 14.1840 135.891 main 1148 1097 __________P___ -1 14.1840 135.891 7 9 280
1912255N14138 1912 45 WP MM NOT_NAMED 1912-09-11 15:00:00 NR 14.2682 135.449 main 1097 1086 __________P___ -1 14.2682 135.449 7 9 281
1912255N14138 1912 45 WP MM NOT_NAMED 1912-09-11 16:00:00 NR 14.3000 135.300 main 1086 1057 __________O___ -1 14.3000 135.300 7 9 283
1912255N14138 1912 45 WP MM NOT_NAMED 1912-09-11 18:00:00 NR 14.3718 135.003 main 1057 1018 __________P___ -1 14.3718 135.003 7 9 285
1912255N14138 1912 45 WP MM NOT_NAMED 1912-09-11 21:00:00 NR 14.4922 134.551 main 1018 968 __________P___ -1 14.4922 134.551 7 9 286
1912255N14138 1912 45 WP MM NOT_NAMED 1912-09-12 00:00:00 NR 14.6223 134.098 main 968 923 __________P___ -1 14.6223 134.098 7 9 287
1912255N14138 1912 45 WP MM NOT_NAMED 1912-09-12 03:00:00 NR 14.7558 133.648 main 923 912 __________P___ -1 14.7558 133.648 7 9 287
1912255N14138 1912 45 WP MM NOT_NAMED 1912-09-12 04:00:00 NR 14.8000 133.500 main 912 885 __________O___ -1 14.8000 133.500 7 9 286
1912255N14138 1912 45 WP MM NOT_NAMED 1912-09-12 06:00:00 NR 14.8779 133.206 main 885 849 __________P___ -1 14.8779 133.206 7 9 285
1912255N14138 1912 45 WP MM NOT_NAMED 1912-09-12 09:00:00 NR 14.9949 132.770 main 849 803 __________P___ -1 14.9949 132.770 7 9 286
1912255N14138 1912 45 WP MM NOT_NAMED 1912-09-12 12:00:00 NR 15.1173 132.345 main 803 773 __________P___ -1 15.1173 132.345 7 8 288
1912255N14138 1912 45 WP MM NOT_NAMED 1912-09-12 15:00:00 NR 15.2516 131.934 main 773 764 __________P___ -1 15.2516 131.934 7 8 289
1912255N14138 1912 45 WP MM NOT_NAMED 1912-09-12 16:00:00 NR 15.3000 131.800 main 764 740 __________O___ -1 15.3000 131.800 7 8 292
1912255N14138 1912 45 WP MM NOT_NAMED 1912-09-12 18:00:00 NR 15.4103 131.533 main 740 714 __________P___ -1 15.4103 131.533 7 8 295
1912255N14138 1912 45 WP MM NOT_NAMED 1912-09-12 21:00:00 NR 15.5887 131.146 main 714 693 __________P___ -1 15.5887 131.146 7 8 296
1912255N14138 1912 45 WP MM NOT_NAMED 1912-09-13 00:00:00 NR 15.7714 130.773 main 699 671 __________P___ -1 15.7714 130.773 7 8 297
1912255N14138 1912 45 WP MM NOT_NAMED 1912-09-13 03:00:00 NR 15.9458 130.416 main 671 670 __________P___ -1 15.9458 130.416 7 8 297
1912255N14138 1912 45 WP MM NOT_NAMED 1912-09-13 04:00:00 NR 16.0000 130.300 main 670 660 __________O___ -1 16.0000 130.300 7 7 294
1912255N14138 1912 45 WP MM NOT_NAMED 1912-09-13 06:00:00 NR 16.0919 130.074 main 660 624 __________P___ -1 16.0919 130.074 7 7 292
1912255N14138 1912 45 WP MM NOT_NAMED 1912-09-13 09:00:00 NR 16.2172 129.749 main 624 600 __________P___ -1 16.2172 129.749 7 7 292
1912255N14138 1912 45 WP MM NOT_NAMED 1912-09-13 12:00:00 NR 16.3359 129.430 main 600 577 __________P___ -1 16.3359 129.430 7 7 291
1912255N14138 1912 45 WP MM NOT_NAMED 1912-09-13 15:00:00 NR 16.4573 129.109 main 582 573 __________P___ -1 16.4573 129.109 7 7 292
1912255N14138 1912 45 WP MM NOT_NAMED 1912-09-13 16:00:00 NR 16.5000 129.000 main 573 560 __________O___ -1 16.5000 129.000 7 7 292
1912255N14138 1912 45 WP MM NOT_NAMED 1912-09-13 18:00:00 NR 16.5863 128.775 main 560 531 __________P___ -1 16.5863 128.775 7 7 292
1912255N14138 1912 45 WP MM NOT_NAMED 1912-09-13 21:00:00 NR 16.7220 128.431 main 531 512 __________P___ -1 16.7220 128.431 7 7 293
1912255N14138 1912 45 WP MM NOT_NAMED 1912-09-14 00:00:00 NR 16.8706 128.080 main 519 495 __________P___ -1 16.8706 128.080 7 8 295
1912255N14138 1912 45 WP MM NOT_NAMED 1912-09-14 03:00:00 NR 17.0386 127.721 main 495 495 __________P___ -1 17.0386 127.721 7 8 297
1912255N14138 1912 45 WP MM NOT_NAMED 1912-09-14 04:00:00 NR 17.1000 127.600 main 495 481 __________O___ -1 17.1000 127.600 7 8 298
1912255N14138 1912 45 WP MM NOT_NAMED 1912-09-14 06:00:00 NR 17.2302 127.348 main 481 475 __________P___ -1 17.2302 127.348 7 8 300
1912255N14138 1912 45 WP MM NOT_NAMED 1912-09-14 09:00:00 NR 17.4445 126.963 main 477 440 __________P___ -1 17.4445 126.963 7 9 301
1912255N14138 1912 45 WP MM NOT_NAMED 1912-09-14 12:00:00 NR 17.6758 126.582 main 442 405 __________P___ -1 17.6758 126.582 7 9 304
1912255N14138 1912 45 WP MM NOT_NAMED 1912-09-14 15:00:00 NR 17.9180 126.216 main 405 397 __________P___ -1 17.9180 126.216 7 8 305
1912255N14138 1912 45 WP MM NOT_NAMED 1912-09-14 16:00:00 NR 18.0000 126.100 main 397 380 __________O___ -1 18.0000 126.100 7 8 307
1912255N14138 1912 45 WP MM NOT_NAMED 1912-09-14 18:00:00 NR 18.1555 125.880 main 380 348 __________P___ -1 18.1555 125.880 7 8 308
1912255N14138 1912 45 WP MM NOT_NAMED 1912-09-14 21:00:00 NR 18.3951 125.569 main 348 317 __________P___ -1 18.3951 125.569 7 8 311
1912255N14138 1912 45 WP MM NOT_NAMED 1912-09-15 00:00:00 NR 18.6451 125.275 main 317 289 __________P___ -1 18.6451 125.275 7 8 313
1912255N14138 1912 45 WP MM NOT_NAMED 1912-09-15 03:00:00 NR 18.9086 124.993 main 289 281 __________P___ -1 18.9086 124.993 7 8 315
1912255N14138 1912 45 WP MM NOT_NAMED 1912-09-15 04:00:00 NR 19.0000 124.900 main 281 268 __________O___ -1 19.0000 124.900 3 8 316
1912255N14138 1912 45 WP MM NOT_NAMED 1912-09-15 06:00:00 NR 19.1885 124.703 main 268 252 __________P___ -1 19.1885 124.703 3 8 316
1912255N14138 1912 45 WP MM NOT_NAMED 1912-09-15 09:00:00 NR 19.4840 124.414 main 252 245 __________P___ -1 19.4840 124.414 3 8 318
1912255N14138 1912 45 WP MM NOT_NAMED 1912-09-15 12:00:00 NR 19.7891 124.137 main 245 245 __________P___ -1 19.7891 124.137 3 8 321
1912255N14138 1912 45 WP MM NOT_NAMED 1912-09-15 15:00:00 NR 20.0975 123.880 main 253 246 __________P___ -1 20.0975 123.880 3 8 322
1912255N14138 1912 45 WP MM NOT_NAMED 1912-09-15 16:00:00 NR 20.2000 123.800 main 255 255 __________O___ -1 20.2000 123.800 4 7 325
1912255N14138 1912 45 WP MM NOT_NAMED 1912-09-15 18:00:00 NR 20.3840 123.662 main 267 261 __________P___ -1 20.3840 123.662 4 7 326
1912255N14138 1912 45 WP MM NOT_NAMED 1912-09-15 21:00:00 NR 20.6598 123.474 main 286 267 __________P___ -1 20.6598 123.474 4 7 328
1912255N14138 1912 45 WP MM NOT_NAMED 1912-09-16 00:00:00 NR 20.9521 123.288 main 267 237 __________P___ -1 20.9521 123.288 4 7 329
1912255N14138 1912 45 WP MM NOT_NAMED 1912-09-16 03:00:00 NR 21.2797 123.079 main 237 224 __________P___ -1 21.2797 123.079 4 8 329
1912255N14138 1912 45 WP MM NOT_NAMED 1912-09-16 04:00:00 NR 21.4000 123.000 main 224 197 __________O___ -1 21.4000 123.000 4 9 329
1912255N14138 1912 45 WP MM NOT_NAMED 1912-09-16 06:00:00 NR 21.6762 122.820 main 197 158 __________P___ -1 21.6762 122.820 4 10 328
1912255N14138 1912 45 WP MM NOT_NAMED 1912-09-16 09:00:00 NR 22.1285 122.518 main 158 99 __________P___ -1 22.1285 122.518 4 11 327
1912255N14138 1912 45 WP MM NOT_NAMED 1912-09-16 12:00:00 NR 22.5989 122.184 main 99 40 __________P___ -1 22.5989 122.184 4 11 325
1912255N14138 1912 45 WP MM NOT_NAMED 1912-09-16 15:00:00 NR 23.0559 121.825 main 40 30 __________P___ -1 23.0559 121.825 4 11 323
1912255N14138 1912 45 WP MM NOT_NAMED 1912-09-16 16:00:00 NR 23.2000 121.700 main 30 10 __________O___ -1 23.2000 121.700 4 11 322
1912255N14138 1912 45 WP MM NOT_NAMED 1912-09-16 18:00:00 NR 23.4927 121.459 main 10 0 __________P___ -1 23.4927 121.459 4 11 321
1912255N14138 1912 45 WP MM NOT_NAMED 1912-09-16 21:00:00 NR 23.9073 121.078 main 0 0 __________P___ -1 23.9073 121.078 4 11 317
1912255N14138 1912 45 WP MM NOT_NAMED 1912-09-17 00:00:00 NR 24.2652 120.674 main 0 0 __________P___ -1 24.2652 120.674 4 10 310
1912255N14138 1912 45 WP MM NOT_NAMED 1912-09-17 03:00:00 NR 24.5350 120.247 main 41 41 __________P___ -1 24.5350 120.247 4 9 303
1912255N14138 1912 45 WP MM NOT_NAMED 1912-09-17 04:00:00 NR 24.6000 120.100 main 55 55 __________O___ -1 24.6000 120.100 4 9 293
1912255N14138 1912 45 WP MM NOT_NAMED 1912-09-17 06:00:00 NR 24.7170 119.779 main 70 35 __________P___ -1 24.7170 119.779 4 9 285
1912255N14138 1912 45 WP MM NOT_NAMED 1912-09-17 09:00:00 NR 24.8048 119.279 main 35 11 __________P___ -1 24.8048 119.279 4 9 274
1912255N14138 1912 45 WP MM NOT_NAMED 1912-09-17 12:00:00 NR 24.7873 118.786 main 11 0 __________P___ -1 24.7873 118.786 4 9 261
1912255N14138 1912 45 WP MM NOT_NAMED 1912-09-17 15:00:00 NR 24.6643 118.335 main 0 0 __________P___ -1 24.6643 118.335 4 8 251
1912255N14138 1912 45 WP MM NOT_NAMED 1912-09-17 16:00:00 NR 24.6000 118.200 main 0 0 __________O___ -1 24.6000 118.200 4 8 237
1912255N14138 1912 45 WP MM NOT_NAMED 1912-09-17 18:00:00 NR 24.4377 117.957 main 0 0 __________P___ -1 24.4377 117.957 4 8 226
1912255N14138 1912 45 WP MM NOT_NAMED 1912-09-17 21:00:00 NR 24.1239 117.651 main 0 0 __________P___ -1 24.1239 117.651 4 9 217
1912255N14138 1912 45 WP MM NOT_NAMED 1912-09-18 00:00:00 NR 23.7493 117.397 main 11 10 __________P___ -1 23.7493 117.397 4 9 209
1912255N14138 1912 45 WP MM NOT_NAMED 1912-09-18 03:00:00 NR 23.3398 117.172 main 24 22 __________P___ -1 23.3398 117.172 4 9 206
1912255N14138 1912 45 WP MM NOT_NAMED 1912-09-18 04:00:00 NR 23.2000 117.100 main 30 __________O___ -1 23.2000 117.100 4 9 204

Digital Typhoon Data and Search

About IBTrACS Database

This database is a web-friendly format of International Best Track Archive for Climate Stewardship (IBTrACS), a global best track data archive curated by NOAA dating back to 1842.

Updated: 2021-10-27